Time;durP1;ratioP1;P1;durP2;ratioP2;P2;SDS_P1;SDS_P2;PMS_P1;PMS_P2;Temp;Humidity;BMP_temperature;BMP_pressure;BME280_temperature;BME280_humidity;BME280_pressure;Samples;Min_cycle;Max_cycle;Signal;HPM_P1;HPM_P2
2024/01/22 00:00:15;;;;;;;23.58;13.77;;;;;;;-6.36;61.56;95038.19;515687;28;822;-63
2024/01/22 00:00:31;;;;;;;21.83;13.00;;;;;;;-6.35;61.37;95036.28;515685;28;969;-63
2024/01/22 00:00:47;;;;;;;21.07;13.50;;;;;;;-6.35;61.55;95036.28;515677;28;866;-64
2024/01/22 00:01:02;;;;;;;24.67;14.85;;;;;;;-6.35;61.96;95042.41;515673;28;854;-64
2024/01/22 00:01:17;;;;;;;25.38;14.90;;;;;;;-6.35;61.19;95036.28;515666;28;861;-64
2024/01/22 00:01:33;;;;;;;25.30;14.30;;;;;;;-6.38;61.52;95037.06;515654;28;874;-63
2024/01/22 00:01:49;;;;;;;27.08;15.20;;;;;;;-6.41;62.06;95033.25;515764;28;845;-63
2024/01/22 00:02:05;;;;;;;27.30;15.98;;;;;;;-6.38;61.62;95043.19;515684;28;869;-64
2024/01/22 00:02:21;;;;;;;28.40;15.45;;;;;;;-6.37;62.20;95046.66;515639;28;894;-63
2024/01/22 00:02:36;;;;;;;26.23;15.27;;;;;;;-6.36;61.58;95048.94;515748;28;771;-63
2024/01/22 00:02:52;;;;;;;25.50;14.98;;;;;;;-6.36;61.57;95035.50;515586;28;1999;-63
2024/01/22 00:03:07;;;;;;;26.03;14.90;;;;;;;-6.36;61.37;95040.09;515756;28;821;-63
2024/01/22 00:03:22;;;;;;;26.73;15.35;;;;;;;-6.34;61.71;95048.53;515677;28;803;-63
2024/01/22 00:03:38;;;;;;;28.30;15.83;;;;;;;-6.34;61.53;95030.50;515621;28;774;-63
2024/01/22 00:03:53;;;;;;;30.90;16.98;;;;;;;-6.34;61.32;95037.78;515613;28;1221;-63
2024/01/22 00:04:09;;;;;;;32.30;18.37;;;;;;;-6.35;61.61;95036.28;515766;28;771;-64
2024/01/22 00:04:24;;;;;;;33.22;19.02;;;;;;;-6.33;61.81;95040.09;515749;28;783;-64
2024/01/22 00:04:40;;;;;;;35.57;19.33;;;;;;;-6.32;61.84;95036.22;515661;28;1209;-63
2024/01/22 00:04:55;;;;;;;37.72;20.10;;;;;;;-6.30;61.96;95033.88;515773;28;845;-64
2024/01/22 00:05:10;;;;;;;36.27;20.27;;;;;;;-6.27;61.72;95038.47;515687;28;928;-64
2024/01/22 00:05:26;;;;;;;38.70;21.38;;;;;;;-6.25;62.04;95033.44;515766;28;833;-64
2024/01/22 00:05:41;;;;;;;44.20;22.73;;;;;;;-6.24;61.68;95034.22;515658;28;849;-64
2024/01/22 00:05:57;;;;;;;41.77;22.43;;;;;;;-6.22;61.89;95035.34;515747;28;821;-64
2024/01/22 00:06:12;;;;;;;38.05;20.98;;;;;;;-6.19;61.67;95039.91;515687;28;1098;-64
2024/01/22 00:06:28;;;;;;;36.30;19.53;;;;;;;-6.15;62.13;95041.78;515756;28;857;-63
2024/01/22 00:06:43;;;;;;;36.95;20.48;;;;;;;-6.14;62.61;95044.06;515648;28;1133;-64
2024/01/22 00:06:59;;;;;;;41.30;23.00;;;;;;;-6.12;62.49;95038.28;515751;28;802;-64
2024/01/22 00:07:14;;;;;;;45.38;24.02;;;;;;;-6.09;63.05;95038.25;515692;28;786;-63
2024/01/22 00:07:29;;;;;;;52.80;26.33;;;;;;;-6.06;63.14;95039.38;515727;28;767;-63
2024/01/22 00:07:45;;;;;;;53.67;26.48;;;;;;;-6.04;63.74;95039.75;515651;28;783;-63
2024/01/22 00:08:02;;;;;;;45.70;23.67;;;;;;;-6.03;63.44;95038.56;515726;28;774;-63
2024/01/22 00:08:18;;;;;;;47.33;23.33;;;;;;;-6.02;63.71;95040.09;515656;28;855;-63
2024/01/22 00:08:33;;;;;;;44.72;22.40;;;;;;;-5.99;63.96;95044.66;515590;28;902;-64
2024/01/22 00:08:48;;;;;;;41.27;20.93;;;;;;;-5.99;63.48;95040.03;515658;28;823;-63
2024/01/22 00:09:05;;;;;;;41.13;20.10;;;;;;;-5.99;63.76;95036.59;515682;28;767;-64
2024/01/22 00:09:20;;;;;;;36.60;19.75;;;;;;;-6.02;64.11;95040.84;515658;28;846;-63
2024/01/22 00:09:36;;;;;;;38.08;20.40;;;;;;;-6.04;63.81;95037.03;515703;28;854;-64
2024/01/22 00:09:51;;;;;;;37.43;21.13;;;;;;;-6.10;64.05;95041.31;515694;28;849;-64
2024/01/22 00:10:08;;;;;;;41.00;21.03;;;;;;;-6.19;64.87;95039.91;515785;28;873;-64
2024/01/22 00:10:23;;;;;;;43.40;20.05;;;;;;;-6.25;64.59;95038.81;515753;28;838;-64
2024/01/22 00:10:39;;;;;;;40.13;19.83;;;;;;;-6.23;65.00;95047.25;515560;28;1588;-63
2024/01/22 00:10:54;;;;;;;38.03;20.13;;;;;;;-6.20;64.57;95049.16;515747;28;810;-64
2024/01/22 00:11:11;;;;;;;34.72;20.13;;;;;;;-6.17;65.08;95037.56;515745;28;806;-63
2024/01/22 00:11:26;;;;;;;34.95;19.63;;;;;;;-6.12;65.02;95040.97;515591;28;822;-63
2024/01/22 00:11:41;;;;;;;36.58;19.83;;;;;;;-6.09;65.12;95040.19;515548;28;791;-63
2024/01/22 00:11:57;;;;;;;42.27;21.13;;;;;;;-6.07;64.90;95043.22;515623;28;870;-64
2024/01/22 00:12:13;;;;;;;49.43;22.07;;;;;;;-6.16;65.56;95043.72;515645;28;755;-64
2024/01/22 00:12:30;;;;;;;44.28;19.85;;;;;;;-6.18;65.10;95041.44;515806;28;908;-64
2024/01/22 00:12:45;;;;;;;38.08;17.55;;;;;;;-6.17;65.51;95044.88;515869;28;814;-63
2024/01/22 00:13:01;;;;;;;40.80;19.00;;;;;;;-6.14;65.54;95041.38;515811;28;889;-63
2024/01/22 00:13:16;;;;;;;38.33;19.75;;;;;;;-6.10;65.05;95044.00;515845;28;794;-64
2024/01/22 00:13:32;;;;;;;32.43;19.20;;;;;;;-6.08;65.13;95041.69;515851;28;842;-63
2024/01/22 00:13:47;;;;;;;31.73;19.97;;;;;;;-6.04;64.92;95043.16;515816;28;936;-63
2024/01/22 00:14:03;;;;;;;39.78;20.48;;;;;;;-6.01;64.77;95038.91;515874;28;778;-63
2024/01/22 00:14:18;;;;;;;42.30;21.00;;;;;;;-5.98;64.53;95046.19;515858;28;798;-64
2024/01/22 00:14:33;;;;;;;39.05;20.75;;;;;;;-5.94;64.99;95042.28;515822;28;882;-63
2024/01/22 00:14:49;;;;;;;39.50;20.27;;;;;;;-5.91;64.79;95043.41;515772;28;782;-64
2024/01/22 00:15:05;;;;;;;37.42;19.77;;;;;;;-5.91;64.19;95044.16;515785;28;842;-64
2024/01/22 00:15:20;;;;;;;33.63;18.15;;;;;;;-5.89;64.40;95043.75;515877;28;845;-64
2024/01/22 00:15:36;;;;;;;30.20;17.37;;;;;;;-5.89;63.81;95041.81;515829;28;766;-64
2024/01/22 00:15:51;;;;;;;33.70;17.07;;;;;;;-5.89;63.55;95035.69;515738;28;1142;-63
2024/01/22 00:16:06;;;;;;;33.72;17.40;;;;;;;-5.90;64.05;95043.00;515864;28;799;-63
2024/01/22 00:16:26;;;;;;;31.67;17.80;;;;;;;-5.89;63.36;95041.81;515818;28;900;-64
2024/01/22 00:16:41;;;;;;;32.25;16.90;;;;;;;-5.89;63.50;95041.06;515791;28;1149;-64
2024/01/22 00:16:56;;;;;;;31.83;16.90;;;;;;;-5.88;63.29;95042.59;515861;28;846;-64
2024/01/22 00:17:12;;;;;;;30.20;16.53;;;;;;;-5.90;62.85;95043.00;515855;28;798;-64
2024/01/22 00:17:27;;;;;;;30.00;15.57;;;;;;;-5.90;63.28;95043.00;515735;28;842;-63
2024/01/22 00:17:43;;;;;;;28.57;15.40;;;;;;;-5.89;62.61;95041.06;515751;28;879;-64
2024/01/22 00:17:58;;;;;;;25.70;14.17;;;;;;;-5.89;62.65;95041.06;515878;28;779;-64
2024/01/22 00:18:14;;;;;;;31.80;14.83;;;;;;;-5.89;62.69;95044.50;515811;28;767;-64
2024/01/22 00:18:29;;;;;;;33.55;16.33;;;;;;;-5.89;63.06;95041.06;515868;28;798;-64
2024/01/22 00:18:45;;;;;;;28.90;16.60;;;;;;;-5.97;62.58;95036.94;515826;28;922;-63
2024/01/22 00:19:00;;;;;;;28.30;16.52;;;;;;;-6.00;63.12;95043.13;515747;28;830;-63
2024/01/22 00:19:16;;;;;;;30.85;16.77;;;;;;;-6.14;63.20;95029.88;515827;28;826;-64
2024/01/22 00:19:31;;;;;;;31.70;16.67;;;;;;;-6.09;63.25;95040.94;515806;28;814;-63
2024/01/22 00:19:47;;;;;;;29.63;16.55;;;;;;;-6.10;63.26;95041.31;515840;28;802;-63
2024/01/22 00:20:03;;;;;;;29.93;16.70;;;;;;;-6.12;63.44;95040.97;515847;28;807;-64
2024/01/22 00:20:18;;;;;;;33.08;17.00;;;;;;;-6.13;63.43;95042.91;515739;28;818;-64
2024/01/22 00:20:34;;;;;;;31.88;16.80;;;;;;;-6.17;63.59;95040.25;515835;28;890;-63
2024/01/22 00:20:49;;;;;;;30.60;16.63;;;;;;;-6.18;63.39;95049.50;515864;28;877;-64
2024/01/22 00:21:05;;;;;;;35.00;17.15;;;;;;;-6.22;63.65;95043.41;515864;28;826;-64
2024/01/22 00:21:20;;;;;;;32.97;16.70;;;;;;;-6.23;63.89;95043.78;515712;28;837;-64
2024/01/22 00:21:40;;;;;;;29.90;16.23;;;;;;;-6.24;63.85;95051.09;515847;28;858;-64
2024/01/22 00:21:56;;;;;;;35.33;16.38;;;;;;;-6.26;64.02;95042.66;515869;28;907;-63
2024/01/22 00:22:11;;;;;;;34.10;16.80;;;;;;;-6.25;63.63;95044.19;515773;28;862;-64
2024/01/22 00:22:27;;;;;;;30.63;16.52;;;;;;;-6.25;63.99;95043.44;515798;28;770;-63
2024/01/22 00:22:42;;;;;;;32.20;16.50;;;;;;;-6.26;64.30;95041.94;515664;28;1918;-64
2024/01/22 00:22:58;;;;;;;31.55;16.75;;;;;;;-6.25;64.15;95040.75;515884;28;821;-64
2024/01/22 00:23:13;;;;;;;32.83;16.50;;;;;;;-6.27;64.73;95043.84;515810;28;794;-63
2024/01/22 00:23:29;;;;;;;32.25;16.23;;;;;;;-6.28;64.00;95042.31;515878;28;790;-64
2024/01/22 00:23:44;;;;;;;30.37;16.10;;;;;;;-6.27;64.77;95045.75;515800;28;869;-64
2024/01/22 00:24:00;;;;;;;31.02;15.88;;;;;;;-6.26;64.30;95044.63;515888;28;829;-63
2024/01/22 00:24:15;;;;;;;29.93;16.00;;;;;;;-6.28;64.21;95045.00;515827;28;945;-64
2024/01/22 00:24:30;;;;;;;29.42;15.15;;;;;;;-6.27;64.75;95048.44;515762;28;818;-64
2024/01/22 00:24:46;;;;;;;28.80;14.50;;;;;;;-6.28;64.46;95041.56;515798;28;924;-63
2024/01/22 00:25:02;;;;;;;29.20;15.10;;;;;;;-6.30;64.36;95050.00;515843;28;778;-64
2024/01/22 00:25:17;;;;;;;34.08;15.30;;;;;;;-6.33;64.53;95039.31;515834;28;931;-64
2024/01/22 00:25:33;;;;;;;35.87;15.17;;;;;;;-6.33;64.91;95052.75;515800;28;940;-64
2024/01/22 00:25:49;;;;;;;30.55;15.30;;;;;;;-6.33;64.96;95053.53;515753;28;814;-64
2024/01/22 00:26:04;;;;;;;32.40;15.77;;;;;;;-6.33;64.96;95045.47;515835;28;877;-63
2024/01/22 00:26:19;;;;;;;35.03;16.02;;;;;;;-6.30;65.22;95041.94;515820;28;830;-64
2024/01/22 00:26:35;;;;;;;34.90;16.77;;;;;;;-6.27;64.72;95049.22;515876;28;907;-64
2024/01/22 00:26:50;;;;;;;34.78;17.40;;;;;;;-6.25;64.64;95046.88;515793;28;846;-63
2024/01/22 00:27:07;;;;;;;34.90;17.83;;;;;;;-6.23;64.68;95047.25;515804;28;834;-64
2024/01/22 00:27:22;;;;;;;35.70;19.08;;;;;;;-6.21;64.57;95047.59;515749;28;838;-64
2024/01/22 00:27:38;;;;;;;34.17;18.37;;;;;;;-6.18;64.72;95041.44;515784;28;810;-64
2024/01/22 00:27:53;;;;;;;36.60;18.20;;;;;;;-6.16;64.11;95043.72;515796;28;786;-64
2024/01/22 00:28:09;;;;;;;34.10;18.17;;;;;;;-6.13;63.85;95050.22;515789;28;794;-64
2024/01/22 00:28:24;;;;;;;30.88;18.55;;;;;;;-6.11;64.05;95045.19;515846;28;810;-63
2024/01/22 00:28:43;;;;;;;36.43;20.63;;;;;;;-6.10;63.83;95044.00;515696;28;870;-64
2024/01/22 00:28:58;;;;;;;38.60;21.20;;;;;;;-6.09;64.21;95051.69;515833;28;806;-64
2024/01/22 00:29:14;;;;;;;37.43;19.60;;;;;;;-6.06;63.79;95050.13;515830;28;783;-63
2024/01/22 00:29:29;;;;;;;41.53;18.67;;;;;;;-6.04;63.60;95045.13;515875;28;775;-63
2024/01/22 00:29:45;;;;;;;39.03;17.90;;;;;;;-6.01;63.95;95044.28;515813;28;869;-63
2024/01/22 00:30:00;;;;;;;36.20;17.27;;;;;;;-6.00;63.67;95046.59;515709;28;912;-64
2024/01/22 00:30:16;;;;;;;41.37;17.37;;;;;;;-5.99;63.72;95050.78;515793;28;909;-63
2024/01/22 00:30:31;;;;;;;40.88;18.15;;;;;;;-5.97;63.46;95043.06;515755;28;846;-63
2024/01/22 00:30:46;;;;;;;36.17;18.53;;;;;;;-5.95;63.65;95045.34;515764;28;874;-63
2024/01/22 00:31:02;;;;;;;38.30;18.58;;;;;;;-5.97;63.50;95043.06;515856;28;846;-63
2024/01/22 00:31:17;;;;;;;39.33;18.93;;;;;;;-6.03;64.54;95043.94;515752;28;1027;-64
2024/01/22 00:31:33;;;;;;;38.25;19.65;;;;;;;-6.04;64.67;95047.81;515830;28;873;-63
2024/01/22 00:31:48;;;;;;;38.80;21.00;;;;;;;-6.07;64.45;95040.53;515794;28;782;-63
2024/01/22 00:32:04;;;;;;;39.85;20.67;;;;;;;-6.28;64.54;95020.06;515820;28;782;-64
2024/01/22 00:32:20;;;;;;;44.70;19.58;;;;;;;-6.13;64.63;95042.16;515751;28;920;-64
2024/01/22 00:32:35;;;;;;;44.80;19.80;;;;;;;-6.17;65.06;95042.94;515789;28;845;-64
2024/01/22 00:32:51;;;;;;;31.00;17.88;;;;;;;-6.20;64.78;95041.06;515641;28;921;-64
2024/01/22 00:33:06;;;;;;;35.80;17.40;;;;;;;-6.21;65.07;95044.16;515896;28;854;-64
2024/01/22 00:33:22;;;;;;;36.50;17.73;;;;;;;-6.26;65.54;95039.25;515764;28;859;-64
2024/01/22 00:33:37;;;;;;;32.80;17.53;;;;;;;-6.27;65.62;95041.16;515830;28;826;-63
2024/01/22 00:33:53;;;;;;;41.72;18.10;;;;;;;-6.29;65.38;95043.50;515854;28;783;-64
2024/01/22 00:34:08;;;;;;;40.40;17.70;;;;;;;-6.28;65.81;95044.25;515751;28;865;-64
2024/01/22 00:34:23;;;;;;;41.28;19.10;;;;;;;-6.29;65.59;95045.41;515793;28;862;-64
2024/01/22 00:34:39;;;;;;;40.20;18.87;;;;;;;-6.33;65.91;95047.38;515802;28;759;-63
2024/01/22 00:34:54;;;;;;;37.57;17.77;;;;;;;-6.35;65.63;95045.09;515783;28;921;-63
2024/01/22 00:35:10;;;;;;;43.35;17.25;;;;;;;-6.40;65.75;95050.91;515829;28;763;-64
2024/01/22 00:35:25;;;;;;;53.27;17.07;;;;;;;-6.48;66.19;95041.41;515732;28;967;-63
2024/01/22 00:35:41;;;;;;;45.90;17.00;;;;;;;-6.45;66.24;95042.50;515673;28;938;-64
2024/01/22 00:35:56;;;;;;;32.53;16.17;;;;;;;-6.43;66.09;95049.00;515864;28;893;-64
2024/01/22 00:36:13;;;;;;;38.77;16.67;;;;;;;-6.44;66.28;95039.44;515816;28;779;-64
2024/01/22 00:36:28;;;;;;;53.85;17.50;;;;;;;-6.35;66.19;95050.47;515858;28;874;-64
2024/01/22 00:36:44;;;;;;;37.87;15.73;;;;;;;-6.30;65.95;95043.88;515775;28;843;-63
2024/01/22 00:37:00;;;;;;;25.95;14.05;;;;;;;-6.30;65.84;95047.31;515781;28;810;-63
2024/01/22 00:37:15;;;;;;;28.30;14.23;;;;;;;-6.33;65.93;95044.69;515824;28;893;-64
2024/01/22 00:37:31;;;;;;;29.20;14.83;;;;;;;-6.32;65.91;95046.97;515723;28;806;-63
2024/01/22 00:37:46;;;;;;;30.30;14.68;;;;;;;-6.30;66.15;95043.88;515786;28;802;-63
2024/01/22 00:38:02;;;;;;;30.20;14.83;;;;;;;-6.29;65.91;95045.41;515825;28;878;-63
2024/01/22 00:38:17;;;;;;;29.33;15.57;;;;;;;-6.28;65.75;95047.69;515754;28;786;-64
2024/01/22 00:38:33;;;;;;;34.70;16.43;;;;;;;-6.30;66.14;95043.88;515838;28;858;-63
2024/01/22 00:38:48;;;;;;;33.03;15.70;;;;;;;-6.31;66.26;95045.81;515802;28;917;-63
2024/01/22 00:39:04;;;;;;;30.67;15.07;;;;;;;-6.32;66.71;95041.59;515826;28;881;-63
2024/01/22 00:39:19;;;;;;;31.15;15.35;;;;;;;-6.33;66.18;95044.69;513534;28;2241;-63
2024/01/22 00:39:34;;;;;;;29.60;14.77;;;;;;;-6.35;66.64;95041.66;513672;28;799;-64
2024/01/22 00:39:55;;;;;;;29.03;14.70;;;;;;;-6.39;66.14;95049.72;513640;28;787;-64
2024/01/22 00:40:11;;;;;;;30.88;14.40;;;;;;;-6.48;66.59;95049.47;513679;28;894;-64
2024/01/22 00:40:26;;;;;;;35.28;14.82;;;;;;;-6.56;67.16;95049.94;513638;28;870;-64
2024/01/22 00:40:42;;;;;;;33.10;15.30;;;;;;;-6.59;67.60;95048.81;513612;28;888;-63
2024/01/22 00:40:57;;;;;;;38.72;14.30;;;;;;;-6.57;67.42;95046.50;513683;28;791;-64
2024/01/22 00:41:12;;;;;;;41.33;14.87;;;;;;;-6.56;67.64;95045.31;514628;28;857;-63
2024/01/22 00:41:28;;;;;;;32.03;15.35;;;;;;;-6.56;67.69;95048.00;515858;28;807;-64
2024/01/22 00:41:43;;;;;;;26.33;14.10;;;;;;;-6.56;67.60;95048.00;515762;28;838;-64
2024/01/22 00:41:59;;;;;;;30.13;14.10;;;;;;;-6.56;67.42;95048.00;515799;28;882;-63
2024/01/22 00:42:14;;;;;;;31.47;14.33;;;;;;;-6.54;67.76;95051.06;515742;28;802;-63
2024/01/22 00:42:30;;;;;;;26.35;12.93;;;;;;;-6.52;67.57;95050.66;515673;28;889;-64
2024/01/22 00:42:45;;;;;;;31.67;13.40;;;;;;;-6.52;67.61;95051.41;515728;28;1923;-64
2024/01/22 00:43:01;;;;;;;38.00;13.77;;;;;;;-6.48;67.72;95049.47;515761;28;886;-64
2024/01/22 00:43:16;;;;;;;31.70;13.37;;;;;;;-6.43;67.37;95049.00;515849;28;821;-64
2024/01/22 00:43:31;;;;;;;25.93;13.87;;;;;;;-6.40;67.48;95048.22;515730;28;906;-64
2024/01/22 00:43:47;;;;;;;35.90;14.73;;;;;;;-6.39;67.25;95054.38;515730;28;870;-64
2024/01/22 00:44:03;;;;;;;38.10;15.40;;;;;;;-6.39;67.29;95049.72;515792;28;850;-64
2024/01/22 00:44:18;;;;;;;34.33;15.25;;;;;;;-6.38;67.29;95048.56;515855;28;783;-63
2024/01/22 00:44:34;;;;;;;33.83;14.52;;;;;;;-6.36;67.23;95042.78;515745;28;795;-64
2024/01/22 00:44:49;;;;;;;24.80;13.93;;;;;;;-6.34;66.94;95048.53;515757;28;782;-63
2024/01/22 00:45:05;;;;;;;31.52;15.35;;;;;;;-6.34;67.02;95051.97;515751;28;874;-63
2024/01/22 00:45:20;;;;;;;41.33;17.37;;;;;;;-6.32;67.11;95052.34;515747;28;842;-64
2024/01/22 00:45:37;;;;;;;40.78;17.95;;;;;;;-6.30;67.44;95054.63;515798;28;819;-64
2024/01/22 00:45:53;;;;;;;33.55;16.35;;;;;;;-6.31;66.98;95056.56;515789;28;811;-64
2024/01/22 00:46:08;;;;;;;36.05;15.40;;;;;;;-6.33;67.15;95053.53;515820;28;826;-63
2024/01/22 00:46:24;;;;;;;33.90;15.80;;;;;;;-6.35;67.08;95055.84;515787;28;798;-63
2024/01/22 00:46:39;;;;;;;32.10;16.80;;;;;;;-6.41;67.46;95049.38;515687;28;857;-63
2024/01/22 00:46:55;;;;;;;35.30;17.00;;;;;;;-6.42;67.07;95055.94;515767;28;839;-63
2024/01/22 00:47:10;;;;;;;36.90;16.52;;;;;;;-6.40;67.16;95055.50;515817;28;771;-63
2024/01/22 00:47:27;;;;;;;50.43;16.30;;;;;;;-6.38;67.25;95053.19;515845;28;1094;-63
2024/01/22 00:47:42;;;;;;;47.97;15.77;;;;;;;-6.35;67.03;95057.78;515648;28;992;-63
2024/01/22 00:47:57;;;;;;;26.85;15.02;;;;;;;-6.33;66.96;95060.81;515772;28;791;-63
2024/01/22 00:48:13;;;;;;;25.57;15.37;;;;;;;-6.31;67.05;95061.94;515819;28;811;-64
2024/01/22 00:48:28;;;;;;;29.17;16.10;;;;;;;-6.28;66.36;95058.44;515826;28;829;-64
2024/01/22 00:48:44;;;;;;;33.90;15.37;;;;;;;-6.26;66.89;95056.09;515693;28;783;-63
2024/01/22 00:48:59;;;;;;;37.78;15.52;;;;;;;-6.24;66.73;95053.78;515777;28;870;-63
2024/01/22 00:49:15;;;;;;;37.70;17.00;;;;;;;-6.21;66.59;95052.22;515764;28;755;-63
2024/01/22 00:49:30;;;;;;;29.85;16.15;;;;;;;-6.21;66.23;95050.28;515759;28;799;-63
2024/01/22 00:49:46;;;;;;;35.47;15.33;;;;;;;-6.20;65.98;95062.59;515776;28;878;-63
2024/01/22 00:50:01;;;;;;;38.20;15.23;;;;;;;-6.18;66.07;95054.88;515780;28;826;-63
2024/01/22 00:50:16;;;;;;;30.53;15.40;;;;;;;-6.17;66.39;95053.69;515816;28;790;-63
2024/01/22 00:50:32;;;;;;;26.05;15.10;;;;;;;-6.15;66.68;95049.84;515742;28;917;-63
2024/01/22 00:50:47;;;;;;;25.17;14.63;;;;;;;-6.17;66.66;95053.69;513509;28;842;-63
2024/01/22 00:51:03;;;;;;;25.75;14.10;;;;;;;-6.23;66.78;95049.94;513634;28;961;-64
2024/01/22 00:51:18;;;;;;;28.43;13.30;;;;;;;-6.27;67.27;95061.88;513609;28;783;-64
2024/01/22 00:51:34;;;;;;;27.63;12.93;;;;;;;-6.30;67.05;95055.38;513627;28;870;-63
2024/01/22 00:51:49;;;;;;;21.77;12.40;;;;;;;-6.33;67.45;95050.84;513601;28;807;-63
2024/01/22 00:52:05;;;;;;;20.33;11.52;;;;;;;-6.37;67.13;95054.72;513603;28;803;-64
2024/01/22 00:52:20;;;;;;;21.00;11.27;;;;;;;-6.46;67.56;95055.19;513639;28;829;-64
2024/01/22 00:52:36;;;;;;;21.30;11.65;;;;;;;-6.61;67.46;95053.06;513986;28;925;-63
2024/01/22 00:52:52;;;;;;;21.73;11.50;;;;;;;-6.68;67.75;95056.59;515643;28;790;-63
2024/01/22 00:53:07;;;;;;;22.63;11.45;;;;;;;-6.72;68.14;95047.03;515882;28;807;-64
2024/01/22 00:53:22;;;;;;;21.17;11.60;;;;;;;-6.74;68.17;95049.34;515713;28;821;-64
2024/01/22 00:53:38;;;;;;;19.48;10.63;;;;;;;-6.76;68.31;95047.09;515675;28;879;-63
2024/01/22 00:53:56;;;;;;;22.40;10.37;;;;;;;-6.78;68.36;95046.72;515743;28;861;-63
2024/01/22 00:54:11;;;;;;;24.95;12.20;;;;;;;-6.77;68.10;95050.16;515685;28;838;-63
2024/01/22 00:54:27;;;;;;;28.52;12.52;;;;;;;-6.76;68.46;95055.13;515807;28;890;-63
2024/01/22 00:54:42;;;;;;;31.13;12.27;;;;;;;-6.74;68.28;95047.44;515692;28;830;-63
2024/01/22 00:54:57;;;;;;;28.37;12.13;;;;;;;-6.74;68.51;95050.13;515753;28;861;-64
2024/01/22 00:55:13;;;;;;;27.95;12.40;;;;;;;-6.80;68.22;95042.91;513532;28;1568;-64
2024/01/22 00:55:28;;;;;;;28.48;13.35;;;;;;;-6.78;68.04;95049.41;513705;28;826;-63
2024/01/22 00:55:44;;;;;;;27.93;13.17;;;;;;;-6.78;68.49;95045.94;513560;28;913;-63
2024/01/22 00:55:59;;;;;;;29.50;12.38;;;;;;;-6.77;68.46;95047.47;513638;28;910;-64
2024/01/22 00:56:15;;;;;;;34.53;13.50;;;;;;;-6.73;68.20;95053.56;513532;28;787;-64
2024/01/22 00:56:30;;;;;;;35.50;14.90;;;;;;;-6.71;68.39;95052.00;513629;28;783;-63
2024/01/22 00:56:46;;;;;;;33.33;15.47;;;;;;;-6.66;68.35;95054.25;513620;28;838;-64
2024/01/22 00:57:01;;;;;;;33.30;16.70;;;;;;;-6.66;68.08;95053.50;513742;28;1338;-64
2024/01/22 00:57:19;;;;;;;40.47;17.93;;;;;;;-6.67;67.90;95054.66;515768;28;866;-63
2024/01/22 00:57:37;;;;;;;38.35;17.85;;;;;;;-6.66;68.23;95051.56;515667;28;846;-63
2024/01/22 00:57:52;;;;;;;32.80;16.60;;;;;;;-6.61;67.84;95053.84;515686;28;869;-63
2024/01/22 00:58:08;;;;;;;40.30;16.47;;;;;;;-6.57;67.55;95056.47;515773;28;846;-64
2024/01/22 00:58:23;;;;;;;39.78;15.60;;;;;;;-6.54;67.48;95056.41;515749;28;818;-63
2024/01/22 00:58:39;;;;;;;39.73;15.07;;;;;;;-6.51;67.46;95054.88;515730;28;810;-63
2024/01/22 00:58:56;;;;;;;37.35;15.65;;;;;;;-6.48;67.84;95056.75;515787;28;798;-63
2024/01/22 00:59:11;;;;;;;30.40;16.48;;;;;;;-6.46;67.09;95049.84;515678;28;834;-64
2024/01/22 00:59:27;;;;;;;40.60;17.17;;;;;;;-6.42;67.38;95055.94;515802;28;882;-63
2024/01/22 00:59:42;;;;;;;35.78;16.80;;;;;;;-6.40;67.17;95048.22;515669;28;878;-64
2024/01/22 00:59:57;;;;;;;29.47;16.47;;;;;;;-6.41;67.18;95054.75;513555;28;811;-63
2024/01/22 01:00:15;;;;;;;30.83;16.60;;;;;;;-6.41;66.89;95054.75;513584;28;850;-63
2024/01/22 01:00:30;;;;;;;28.33;15.80;;;;;;;-6.42;66.62;95045.19;513518;28;960;-64
2024/01/22 01:00:45;;;;;;;31.43;15.47;;;;;;;-6.41;66.55;95048.63;513628;28;922;-64
2024/01/22 01:01:01;;;;;;;35.43;15.87;;;;;;;-6.43;67.23;95054.38;513631;28;861;-63
2024/01/22 01:01:16;;;;;;;30.27;14.85;;;;;;;-6.42;67.09;95050.56;513630;28;877;-63
2024/01/22 01:01:32;;;;;;;27.60;13.70;;;;;;;-6.42;66.77;95050.56;513589;28;1136;-64
2024/01/22 01:01:47;;;;;;;31.20;13.85;;;;;;;-6.41;67.15;95054.75;514094;28;854;-64
2024/01/22 01:02:04;;;;;;;34.27;15.20;;;;;;;-6.39;67.11;95047.03;515731;28;842;-64
2024/01/22 01:02:19;;;;;;;28.55;15.00;;;;;;;-6.37;66.92;95047.44;515750;28;889;-64
2024/01/22 01:02:34;;;;;;;26.80;14.03;;;;;;;-6.35;66.50;95050.47;515766;28;775;-64
2024/01/22 01:02:50;;;;;;;38.38;15.13;;;;;;;-6.33;66.50;95042.78;515594;28;1926;-63
2024/01/22 01:03:05;;;;;;;44.63;16.30;;;;;;;-6.32;66.62;95040.81;515762;28;846;-64
2024/01/22 01:03:21;;;;;;;42.35;16.35;;;;;;;-6.31;66.20;95043.13;515711;28;872;-63
2024/01/22 01:03:36;;;;;;;49.07;17.33;;;;;;;-6.29;65.96;95040.81;515776;28;844;-63
2024/01/22 01:03:52;;;;;;;50.85;18.08;;;;;;;-6.29;65.77;95040.81;515648;28;1157;-63
2024/01/22 01:04:07;;;;;;;39.23;16.80;;;;;;;-6.29;66.02;95043.50;515770;28;810;-63
2024/01/22 01:04:23;;;;;;;34.77;16.93;;;;;;;-6.27;66.03;95043.84;515702;28;837;-63
2024/01/22 01:04:38;;;;;;;40.93;17.20;;;;;;;-6.25;65.89;95036.13;515624;28;1182;-63
2024/01/22 01:04:53;;;;;;;46.03;17.47;;;;;;;-6.24;65.71;95042.28;515712;28;861;-63
2024/01/22 01:05:09;;;;;;;44.75;17.25;;;;;;;-6.22;66.07;95043.41;515744;28;770;-64
2024/01/22 01:05:24;;;;;;;36.40;15.87;;;;;;;-6.20;65.61;95043.78;515766;28;787;-63
2024/01/22 01:05:40;;;;;;;28.52;15.40;;;;;;;-6.18;65.63;95049.50;515681;28;809;-63
2024/01/22 01:05:55;;;;;;;33.57;16.10;;;;;;;-6.18;65.38;95052.19;515749;28;846;-63
2024/01/22 01:06:11;;;;;;;32.78;15.77;;;;;;;-6.25;65.84;95040.75;515723;28;767;-63
2024/01/22 01:06:26;;;;;;;34.73;15.27;;;;;;;-6.32;65.50;95040.81;515766;28;830;-63
2024/01/22 01:06:43;;;;;;;37.80;16.02;;;;;;;-6.38;66.01;95045.91;515745;28;882;-63
2024/01/22 01:06:58;;;;;;;37.45;17.52;;;;;;;-6.40;66.22;95050.13;515812;28;889;-63
2024/01/22 01:07:14;;;;;;;43.93;18.00;;;;;;;-6.45;66.17;95045.97;515742;28;786;-63
2024/01/22 01:07:29;;;;;;;44.20;17.53;;;;;;;-6.51;66.07;95039.50;515721;28;858;-63
2024/01/22 01:07:45;;;;;;;39.77;18.23;;;;;;;-6.59;66.61;95042.69;515714;28;790;-63
2024/01/22 01:08:00;;;;;;;43.03;18.67;;;;;;;-6.64;66.85;95043.88;515741;28;826;-63
2024/01/22 01:08:16;;;;;;;46.60;17.63;;;;;;;-6.66;67.09;95038.16;515754;28;814;-63
2024/01/22 01:08:31;;;;;;;37.40;16.70;;;;;;;-6.72;67.18;95045.13;515741;28;798;-64
2024/01/22 01:08:46;;;;;;;28.52;15.80;;;;;;;-6.71;67.25;95041.25;515693;28;844;-64
2024/01/22 01:09:02;;;;;;;29.00;15.67;;;;;;;-6.71;67.60;95038.56;515792;28;770;-64
2024/01/22 01:09:18;;;;;;;35.08;16.55;;;;;;;-6.61;67.40;95042.31;515746;28;849;-63
2024/01/22 01:09:33;;;;;;;45.90;18.27;;;;;;;-6.57;67.21;95040.34;515772;28;834;-63
2024/01/22 01:09:48;;;;;;;54.15;19.60;;;;;;;-6.54;67.48;95040.31;515746;28;897;-64
2024/01/22 01:10:04;;;;;;;52.03;18.80;;;;;;;-6.52;67.50;95039.94;515729;28;849;-63
2024/01/22 01:10:20;;;;;;;44.42;17.67;;;;;;;-6.55;67.18;95044.16;515673;28;933;-63
2024/01/22 01:10:35;;;;;;;38.65;17.02;;;;;;;-6.60;67.23;95041.91;513587;28;783;-63
2024/01/22 01:10:51;;;;;;;35.43;16.57;;;;;;;-6.66;67.49;95040.84;513470;28;917;-64
2024/01/22 01:11:07;;;;;;;36.72;17.48;;;;;;;-6.68;67.94;95039.69;513682;28;810;-63
2024/01/22 01:11:22;;;;;;;40.60;18.92;;;;;;;-6.68;67.98;95035.09;513561;28;795;-63
2024/01/22 01:11:38;;;;;;;42.67;18.73;;;;;;;-6.65;68.05;95039.69;513511;28;1131;-63
2024/01/22 01:11:53;;;;;;;47.45;18.98;;;;;;;-6.64;68.09;95043.88;513559;28;751;-63
2024/01/22 01:12:08;;;;;;;50.20;18.60;;;;;;;-6.64;67.68;95035.81;513611;28;799;-63
2024/01/22 01:12:24;;;;;;;47.08;17.65;;;;;;;-6.75;68.16;95019.06;513926;28;775;-63
2024/01/22 01:12:39;;;;;;;38.83;17.70;;;;;;;-6.56;68.26;95034.56;515704;28;822;-63
2024/01/22 01:12:55;;;;;;;35.40;17.70;;;;;;;-6.51;68.07;95036.06;515602;28;791;-63
2024/01/22 01:13:10;;;;;;;34.10;18.03;;;;;;;-6.48;68.07;95044.09;515775;28;838;-63
2024/01/22 01:13:26;;;;;;;38.00;17.97;;;;;;;-6.43;67.81;95040.94;515707;28;857;-63
2024/01/22 01:13:41;;;;;;;34.42;16.55;;;;;;;-6.39;67.65;95040.94;515702;28;1014;-63
2024/01/22 01:13:57;;;;;;;33.27;15.80;;;;;;;-6.38;67.65;95037.06;515781;28;909;-64
2024/01/22 01:14:12;;;;;;;36.20;15.52;;;;;;;-6.39;67.66;95033.59;515663;28;1094;-63
2024/01/22 01:14:27;;;;;;;39.97;16.13;;;;;;;-6.39;66.94;95032.88;515683;28;774;-64